createdAt,value
2023-11-23T00:02:02.296Z,-2.91
2023-11-23T00:04:29.050Z,-2.91
2023-11-23T00:06:55.750Z,-2.89
2023-11-23T00:09:22.475Z,-2.87
2023-11-23T00:11:49.281Z,-2.85
2023-11-23T00:14:16.009Z,-2.81
2023-11-23T00:16:44.821Z,-2.81
2023-11-23T00:19:11.679Z,-2.81
2023-11-23T00:21:38.464Z,-2.83
2023-11-23T00:24:06.250Z,-2.88
2023-11-23T00:26:34.953Z,-2.88
2023-11-23T00:29:01.946Z,-2.90
2023-11-23T00:31:28.655Z,-2.82
2023-11-23T00:33:55.848Z,-2.76
2023-11-23T00:36:22.855Z,-2.69
2023-11-23T00:38:49.822Z,-2.63
2023-11-23T00:41:16.725Z,-2.60
2023-11-23T00:43:43.374Z,-2.62
2023-11-23T00:46:11.962Z,-2.64
2023-11-23T00:48:38.935Z,-2.63
2023-11-23T00:51:06.085Z,-2.60
2023-11-23T00:53:33.468Z,-2.63
2023-11-23T00:56:00.929Z,-2.68
2023-11-23T00:58:27.851Z,-2.71
2023-11-23T01:00:54.630Z,-2.70
2023-11-23T01:03:21.472Z,-2.70
2023-11-23T01:05:48.456Z,-2.69
2023-11-23T01:08:16.372Z,-2.64
2023-11-23T01:10:43.896Z,-2.61
2023-11-23T01:13:10.573Z,-2.60
2023-11-23T01:15:37.286Z,-2.61
2023-11-23T01:18:04.754Z,-2.62
2023-11-23T01:20:31.567Z,-2.62
2023-11-23T01:22:58.454Z,-2.66
2023-11-23T01:25:25.250Z,-2.68
2023-11-23T01:27:51.952Z,-2.73
2023-11-23T01:30:19.083Z,-2.75
2023-11-23T01:32:46.085Z,-2.74
2023-11-23T01:35:13.882Z,-2.71
2023-11-23T01:37:40.662Z,-2.69
2023-11-23T01:40:09.984Z,-2.65
2023-11-23T01:42:36.864Z,-2.59
2023-11-23T01:45:03.786Z,-2.54
2023-11-23T01:47:32.657Z,-2.55
2023-11-23T01:50:04.420Z,-2.56
2023-11-23T01:52:31.655Z,-2.60
2023-11-23T01:54:58.727Z,-2.66
2023-11-23T01:57:26.440Z,-2.68
2023-11-23T01:59:53.703Z,-2.72
2023-11-23T02:02:20.512Z,-2.78
2023-11-23T02:04:47.756Z,-2.85
2023-11-23T02:07:14.551Z,-2.89
2023-11-23T02:09:42.032Z,-2.90
2023-11-23T02:12:10.787Z,-2.87
2023-11-23T02:14:39.125Z,-2.85
2023-11-23T02:17:19.135Z,-2.85
2023-11-23T02:19:47.812Z,-2.83
2023-11-23T02:22:14.591Z,-2.78
2023-11-23T02:24:41.583Z,-2.76
2023-11-23T02:27:09.955Z,-2.76
2023-11-23T02:29:37.006Z,-2.79
2023-11-23T02:32:08.388Z,-2.81
2023-11-23T02:34:35.311Z,-2.79
2023-11-23T02:37:02.124Z,-2.78
2023-11-23T02:39:29.177Z,-2.75
2023-11-23T02:41:56.691Z,-2.72
2023-11-23T02:44:23.676Z,-2.72
2023-11-23T02:46:51.228Z,-2.71
2023-11-23T02:49:19.550Z,-2.76
2023-11-23T02:51:46.869Z,-2.76
2023-11-23T02:54:13.879Z,-2.76
2023-11-23T02:56:41.137Z,-2.80
2023-11-23T02:59:09.126Z,-2.80
2023-11-23T03:01:36.329Z,-2.77
2023-11-23T03:04:05.872Z,-2.75
2023-11-23T03:06:32.830Z,-2.74
2023-11-23T03:09:00.020Z,-2.73
2023-11-23T03:11:27.723Z,-2.71
2023-11-23T03:13:55.155Z,-2.70
2023-11-23T03:16:21.906Z,-2.68
2023-11-23T03:18:49.200Z,-2.71
2023-11-23T03:21:16.269Z,-2.72
2023-11-23T03:23:46.732Z,-2.73
2023-11-23T03:26:14.114Z,-2.71
2023-11-23T03:28:40.834Z,-2.67
2023-11-23T03:31:09.121Z,-2.67
2023-11-23T03:33:35.886Z,-2.59
2023-11-23T03:36:02.950Z,-2.55
2023-11-23T03:38:29.713Z,-2.56
2023-11-23T03:40:59.122Z,-2.57
2023-11-23T03:43:26.245Z,-2.63
2023-11-23T03:45:53.021Z,-2.61
2023-11-23T03:48:20.095Z,-2.59
2023-11-23T03:50:47.654Z,-2.54
2023-11-23T03:53:14.557Z,-2.47
2023-11-23T03:55:41.285Z,-2.42
2023-11-23T03:58:07.967Z,-2.34
2023-11-23T04:00:36.009Z,-2.33
2023-11-23T04:03:02.975Z,-2.33
2023-11-23T04:05:29.911Z,-2.30
2023-11-23T04:07:56.920Z,-2.29
2023-11-23T04:10:23.602Z,-2.27
2023-11-23T04:12:52.178Z,-2.26
2023-11-23T04:15:19.223Z,-2.26
2023-11-23T04:17:46.553Z,-2.24
2023-11-23T04:20:14.311Z,-2.19
2023-11-23T04:22:41.139Z,-2.16
2023-11-23T04:25:09.757Z,-2.08
2023-11-23T04:27:36.738Z,-2.03
2023-11-23T04:30:05.468Z,-1.98
2023-11-23T04:32:33.200Z,-1.92
2023-11-23T04:34:59.919Z,-1.90
2023-11-23T04:37:26.659Z,-1.85
2023-11-23T04:39:53.634Z,-1.84
2023-11-23T04:42:20.747Z,-1.83
2023-11-23T04:44:47.600Z,-1.83
2023-11-23T04:47:14.674Z,-1.82
2023-11-23T04:49:41.436Z,-1.79
2023-11-23T04:52:09.361Z,-1.76
2023-11-23T04:54:36.484Z,-1.71
2023-11-23T04:57:03.649Z,-1.67
2023-11-23T04:59:30.770Z,-1.60
2023-11-23T05:01:57.761Z,-1.55
2023-11-23T05:04:25.347Z,-1.53
2023-11-23T05:06:52.681Z,-1.48
2023-11-23T05:09:19.684Z,-1.45
2023-11-23T05:11:47.386Z,-1.45
2023-11-23T05:14:14.101Z,-1.43
2023-11-23T05:16:40.996Z,-1.40
2023-11-23T05:19:07.856Z,-1.35
2023-11-23T05:21:34.913Z,-1.32
2023-11-23T05:24:03.844Z,-1.27
2023-11-23T05:26:31.522Z,-1.23
2023-11-23T05:28:58.302Z,-1.17
2023-11-23T05:31:25.046Z,-1.15
2023-11-23T05:33:51.905Z,-1.16
2023-11-23T05:36:18.820Z,-1.16
2023-11-23T05:38:45.612Z,-1.15
2023-11-23T05:41:12.564Z,-1.16
2023-11-23T05:43:39.291Z,-1.13
2023-11-23T05:46:06.370Z,-1.08
2023-11-23T05:48:33.088Z,-1.05
2023-11-23T05:51:00.030Z,-1.01
2023-11-23T05:53:26.792Z,-1.00
2023-11-23T05:55:53.462Z,-0.98
2023-11-23T05:58:20.261Z,-0.99
2023-11-23T06:00:50.255Z,-0.98
2023-11-23T06:03:21.131Z,-0.95
2023-11-23T06:05:50.626Z,-0.92
2023-11-23T06:08:17.316Z,-0.87
2023-11-23T06:10:44.478Z,-0.85
2023-11-23T06:13:11.234Z,-0.85
2023-11-23T06:15:38.047Z,-0.83
2023-11-23T06:18:13.306Z,-0.85
2023-11-23T06:20:39.768Z,-0.84
2023-11-23T06:23:06.536Z,-0.82
2023-11-23T06:25:33.580Z,-0.79
2023-11-23T06:28:12.372Z,-0.76
2023-11-23T06:30:42.483Z,-0.70
2023-11-23T06:33:09.587Z,-0.64
2023-11-23T06:35:36.474Z,-0.58
2023-11-23T06:38:04.234Z,-0.54
2023-11-23T06:40:31.091Z,-0.52
2023-11-23T06:42:58.009Z,-0.49
2023-11-23T06:45:25.080Z,-0.47
2023-11-23T06:47:52.137Z,-0.38
2023-11-23T06:50:19.409Z,-0.33
2023-11-23T06:52:46.371Z,-0.29
2023-11-23T06:55:15.326Z,-0.29
2023-11-23T06:57:47.947Z,-0.29
2023-11-23T07:00:23.400Z,-0.29
2023-11-23T07:02:50.980Z,-0.28
2023-11-23T07:05:18.123Z,-0.26
2023-11-23T07:07:45.265Z,-0.28
2023-11-23T07:10:15.384Z,-0.27
2023-11-23T07:12:44.168Z,-0.24
2023-11-23T07:15:13.474Z,-0.22
2023-11-23T07:17:41.220Z,-0.19
2023-11-23T07:20:13.811Z,-0.17
2023-11-23T07:22:40.876Z,-0.16
2023-11-23T07:25:11.066Z,-0.13
2023-11-23T07:27:38.901Z,-0.11
2023-11-23T07:30:07.856Z,-0.10
2023-11-23T07:32:34.900Z,-0.01
2023-11-23T07:35:01.772Z,0.04
2023-11-23T07:37:30.075Z,0.10
2023-11-23T07:39:58.232Z,0.11
2023-11-23T07:42:26.803Z,0.13
2023-11-23T07:44:53.996Z,0.11
2023-11-23T07:47:21.208Z,0.11
2023-11-23T07:49:47.996Z,0.10
2023-11-23T07:52:15.296Z,0.11
2023-11-23T07:54:42.093Z,0.10
2023-11-23T07:57:09.042Z,0.11
2023-11-23T07:59:37.898Z,0.12
2023-11-23T08:02:06.191Z,0.16
2023-11-23T08:04:33.230Z,0.18
2023-11-23T08:07:00.505Z,0.23
2023-11-23T08:09:31.367Z,0.26
2023-11-23T08:11:58.666Z,0.34
2023-11-23T08:14:25.589Z,0.41
2023-11-23T08:16:52.646Z,0.43
2023-11-23T08:19:19.851Z,0.46
2023-11-23T08:21:49.977Z,0.46
2023-11-23T08:24:18.591Z,0.45
2023-11-23T08:26:45.856Z,0.47
2023-11-23T08:29:13.192Z,0.50
2023-11-23T08:31:41.123Z,0.52
2023-11-23T08:34:09.260Z,0.56
2023-11-23T08:36:37.253Z,0.60
2023-11-23T08:39:04.519Z,0.64
2023-11-23T08:41:32.654Z,0.70
2023-11-23T08:44:00.037Z,0.74
2023-11-23T08:46:27.044Z,0.78
2023-11-23T08:48:55.667Z,0.77
2023-11-23T08:51:23.799Z,0.79
2023-11-23T08:53:51.464Z,0.81
2023-11-23T08:56:18.627Z,0.80
2023-11-23T08:58:45.432Z,0.85
2023-11-23T09:01:12.317Z,0.87
2023-11-23T09:03:39.444Z,0.90
2023-11-23T09:06:09.790Z,0.91
2023-11-23T09:08:37.654Z,0.92
2023-11-23T09:11:04.419Z,0.93
2023-11-23T09:13:33.189Z,0.96
2023-11-23T09:16:01.215Z,0.99
2023-11-23T09:18:28.191Z,1.04
2023-11-23T09:20:58.349Z,1.08
2023-11-23T09:23:26.163Z,1.10
2023-11-23T09:25:52.890Z,1.11
2023-11-23T09:28:20.433Z,1.13
2023-11-23T09:30:47.758Z,1.12
2023-11-23T09:33:16.412Z,1.15
2023-11-23T09:35:43.743Z,1.16
2023-11-23T09:38:11.407Z,1.16
2023-11-23T09:40:38.419Z,1.21
2023-11-23T09:43:05.989Z,1.24
2023-11-23T09:45:33.490Z,1.26
2023-11-23T09:48:01.975Z,1.30
2023-11-23T09:50:34.021Z,1.34
2023-11-23T09:53:05.455Z,1.37
2023-11-23T09:55:32.799Z,1.39
2023-11-23T09:58:00.352Z,1.42
2023-11-23T10:00:27.163Z,1.46
2023-11-23T10:02:57.203Z,1.49
2023-11-23T10:05:25.426Z,1.53
2023-11-23T10:07:54.962Z,1.59
2023-11-23T10:10:22.298Z,1.63
2023-11-23T10:12:50.857Z,1.68
2023-11-23T10:15:17.983Z,1.71
2023-11-23T10:17:44.911Z,1.73
2023-11-23T10:20:16.682Z,1.78
2023-11-23T10:22:47.042Z,1.81
2023-11-23T10:25:23.166Z,1.85
2023-11-23T10:27:49.885Z,1.90
2023-11-23T10:30:17.891Z,1.92
2023-11-23T10:32:44.922Z,1.98
2023-11-23T10:35:14.032Z,2.03
2023-11-23T10:37:43.719Z,2.10
2023-11-23T10:40:14.605Z,2.15
2023-11-23T10:42:42.946Z,2.22
2023-11-23T10:45:13.839Z,2.29
2023-11-23T10:47:42.266Z,2.34
2023-11-23T10:50:12.174Z,2.37
2023-11-23T10:52:40.775Z,2.40
2023-11-23T10:55:09.012Z,2.41
2023-11-23T10:57:36.890Z,2.41
2023-11-23T11:00:08.600Z,2.42
2023-11-23T11:02:35.819Z,2.45
2023-11-23T11:05:04.710Z,2.48
2023-11-23T11:07:31.789Z,2.50
2023-11-23T11:10:06.636Z,2.52
2023-11-23T11:12:40.518Z,2.53
2023-11-23T11:15:09.062Z,2.57
2023-11-23T11:17:40.164Z,2.59
2023-11-23T11:20:11.229Z,2.63
2023-11-23T11:22:38.270Z,2.65
2023-11-23T11:25:05.570Z,2.67
2023-11-23T11:27:36.650Z,2.72
2023-11-23T11:30:03.945Z,2.77
2023-11-23T11:32:36.783Z,2.83
2023-11-23T11:35:09.953Z,2.88
2023-11-23T11:37:37.725Z,2.90
2023-11-23T11:40:06.877Z,2.92
2023-11-23T11:42:36.339Z,2.96
2023-11-23T11:45:07.392Z,3.02
2023-11-23T11:47:35.328Z,3.05
2023-11-23T11:50:02.186Z,3.08
2023-11-23T11:52:29.060Z,3.12
2023-11-23T11:54:56.020Z,3.17
2023-11-23T11:57:23.422Z,3.19
2023-11-23T11:59:50.429Z,3.22
2023-11-23T12:02:17.434Z,3.26
2023-11-23T12:04:45.421Z,3.30
2023-11-23T12:07:17.139Z,3.32
2023-11-23T12:09:46.981Z,3.35
2023-11-23T12:12:14.486Z,3.39
2023-11-23T12:14:41.754Z,3.41
2023-11-23T12:17:12.869Z,3.42
2023-11-23T12:19:50.787Z,3.45
2023-11-23T12:22:21.535Z,3.48
2023-11-23T12:24:48.454Z,3.52
2023-11-23T12:27:17.007Z,3.54
2023-11-23T12:29:45.034Z,3.58
2023-11-23T12:32:11.719Z,3.63
2023-11-23T12:34:38.446Z,3.68
2023-11-23T12:37:05.996Z,3.73
2023-11-23T12:39:32.855Z,3.78
2023-11-23T12:41:59.831Z,3.80
2023-11-23T12:44:26.883Z,3.81
2023-11-23T12:46:53.926Z,3.83
2023-11-23T12:49:21.477Z,3.85
2023-11-23T12:51:48.823Z,3.87
2023-11-23T12:54:16.265Z,3.92
2023-11-23T12:56:43.281Z,3.97
2023-11-23T12:59:10.160Z,4.01
2023-11-23T13:01:40.330Z,4.05
2023-11-23T13:04:09.928Z,4.09
2023-11-23T13:06:37.727Z,4.10
2023-11-23T13:09:05.388Z,4.11
2023-11-23T13:11:32.940Z,4.12
2023-11-23T13:13:59.693Z,4.14
2023-11-23T13:16:26.792Z,4.19
2023-11-23T13:19:10.377Z,4.23
2023-11-23T13:21:42.496Z,4.29
2023-11-23T13:24:13.179Z,4.32
2023-11-23T13:26:40.159Z,4.37
2023-11-23T13:29:07.460Z,4.43
2023-11-23T13:31:34.853Z,4.46
2023-11-23T13:34:01.988Z,4.49
2023-11-23T13:36:29.471Z,4.53
2023-11-23T13:38:57.681Z,4.58
2023-11-23T13:41:24.405Z,4.62
2023-11-23T13:43:51.149Z,4.66
2023-11-23T13:46:18.461Z,4.70
2023-11-23T13:48:47.463Z,4.74
2023-11-23T13:51:18.616Z,4.80
2023-11-23T13:53:45.423Z,4.87
2023-11-23T13:56:12.909Z,4.91
2023-11-23T13:58:39.929Z,4.92
2023-11-23T14:01:06.915Z,4.94
2023-11-23T14:03:36.266Z,4.95
2023-11-23T14:06:04.267Z,4.99
2023-11-23T14:08:31.021Z,5.02
2023-11-23T14:10:57.976Z,5.05
2023-11-23T14:13:26.640Z,5.07
2023-11-23T14:15:54.971Z,5.11
2023-11-23T14:18:23.032Z,5.14
2023-11-23T14:20:51.017Z,5.18
2023-11-23T14:23:18.598Z,5.22
2023-11-23T14:25:45.518Z,5.27
2023-11-23T14:28:16.154Z,5.31
2023-11-23T14:30:43.946Z,5.33
2023-11-23T14:33:12.635Z,5.36
2023-11-23T14:35:39.508Z,5.38
2023-11-23T14:38:06.707Z,5.41
2023-11-23T14:40:33.515Z,5.44
2023-11-23T14:43:00.343Z,5.47
2023-11-23T14:45:31.307Z,5.49
2023-11-23T14:48:00.029Z,5.51
2023-11-23T14:50:30.056Z,5.53
2023-11-23T14:52:57.400Z,5.55
2023-11-23T14:55:24.498Z,5.58
2023-11-23T14:57:51.493Z,5.60
2023-11-23T15:00:19.869Z,5.60
2023-11-23T15:02:47.066Z,5.65
2023-11-23T15:05:16.513Z,5.67
2023-11-23T15:07:43.768Z,5.69
2023-11-23T15:10:13.997Z,5.73
2023-11-23T15:12:41.275Z,5.76
2023-11-23T15:15:09.593Z,5.78
2023-11-23T15:17:37.620Z,5.81
2023-11-23T15:20:07.365Z,5.83
2023-11-23T15:22:34.402Z,5.82
2023-11-23T15:25:08.306Z,5.82
2023-11-23T15:27:37.317Z,5.82
2023-11-23T15:30:06.200Z,5.83
2023-11-23T15:32:38.760Z,5.86
2023-11-23T15:35:06.457Z,5.90
2023-11-23T15:37:33.204Z,5.93
2023-11-23T15:39:59.985Z,5.96
2023-11-23T15:42:27.669Z,5.98
2023-11-23T15:44:54.475Z,6.01
2023-11-23T15:47:21.282Z,6.04
2023-11-23T15:49:48.929Z,6.06
2023-11-23T15:52:16.211Z,6.11
2023-11-23T15:54:43.158Z,6.13
2023-11-23T15:57:11.302Z,6.15
2023-11-23T15:59:38.449Z,6.17
2023-11-23T16:02:05.945Z,6.20
2023-11-23T16:04:33.256Z,6.23
2023-11-23T16:07:01.896Z,6.27
2023-11-23T16:09:28.844Z,6.29
2023-11-23T16:11:56.198Z,6.32
2023-11-23T16:14:25.202Z,6.36
2023-11-23T16:16:52.049Z,6.38
2023-11-23T16:19:18.844Z,6.40
2023-11-23T16:21:45.718Z,6.39
2023-11-23T16:24:14.009Z,6.42
2023-11-23T16:26:41.016Z,6.45
2023-11-23T16:29:11.728Z,6.48
2023-11-23T16:31:43.301Z,6.51
2023-11-23T16:34:11.224Z,6.52
2023-11-23T16:36:40.496Z,6.53
2023-11-23T16:39:14.535Z,6.55
2023-11-23T16:41:41.375Z,6.55
2023-11-23T16:44:08.605Z,6.57
2023-11-23T16:46:35.361Z,6.60
2023-11-23T16:49:02.423Z,6.62
2023-11-23T16:51:30.326Z,6.64
2023-11-23T16:53:57.561Z,6.66
2023-11-23T16:56:24.556Z,6.69
2023-11-23T16:58:51.779Z,6.71
2023-11-23T17:01:19.045Z,6.73
2023-11-23T17:03:46.092Z,6.75
2023-11-23T17:06:13.594Z,6.76
2023-11-23T17:08:40.935Z,6.80
2023-11-23T17:11:10.223Z,6.81
2023-11-23T17:13:37.792Z,6.82
2023-11-23T17:16:04.836Z,6.84
2023-11-23T17:18:31.844Z,6.84
2023-11-23T17:20:58.880Z,6.83
2023-11-23T17:23:26.139Z,6.89
2023-11-23T17:25:53.214Z,6.94
2023-11-23T17:28:21.931Z,6.98
2023-11-23T17:30:49.885Z,7.02
2023-11-23T17:33:20.348Z,7.05
2023-11-23T17:35:47.324Z,7.06
2023-11-23T17:38:14.950Z,7.03
2023-11-23T17:40:42.912Z,7.02
2023-11-23T17:43:09.816Z,7.03
2023-11-23T17:45:37.036Z,7.01
2023-11-23T17:48:05.465Z,7.02
2023-11-23T17:50:32.290Z,7.02
2023-11-23T17:52:59.896Z,7.01
2023-11-23T17:55:28.471Z,7.02
2023-11-23T17:57:56.028Z,7.01
2023-11-23T18:00:25.779Z,7.02
2023-11-23T18:02:52.714Z,7.05
2023-11-23T18:05:19.905Z,7.09
2023-11-23T18:07:47.425Z,7.11
2023-11-23T18:10:16.291Z,7.13
2023-11-23T18:12:43.336Z,7.14
2023-11-23T18:15:12.968Z,7.11
2023-11-23T18:17:40.866Z,7.08
2023-11-23T18:20:12.625Z,7.06
2023-11-23T18:22:39.878Z,7.04
2023-11-23T18:25:08.880Z,7.02
2023-11-23T18:27:36.017Z,6.99
2023-11-23T18:30:02.996Z,6.96
2023-11-23T18:32:30.856Z,6.94
2023-11-23T18:34:57.648Z,6.92
2023-11-23T18:37:24.808Z,6.89
2023-11-23T18:39:51.668Z,6.88
2023-11-23T18:42:18.543Z,6.85
2023-11-23T18:44:45.500Z,6.84
2023-11-23T18:47:12.719Z,6.84
2023-11-23T18:49:39.556Z,6.83
2023-11-23T18:52:07.079Z,6.80
2023-11-23T18:54:33.928Z,6.77
2023-11-23T18:57:01.009Z,6.78
2023-11-23T18:59:27.738Z,6.78
2023-11-23T19:01:55.597Z,6.79
2023-11-23T19:04:23.475Z,6.78
2023-11-23T19:06:54.318Z,6.74
2023-11-23T19:09:23.809Z,6.74
2023-11-23T19:11:51.117Z,6.71
2023-11-23T19:14:18.022Z,6.72
2023-11-23T19:16:44.988Z,6.71
2023-11-23T19:19:14.012Z,6.70
2023-11-23T19:21:41.998Z,6.70
2023-11-23T19:24:11.168Z,6.73
2023-11-23T19:26:39.626Z,6.74
2023-11-23T19:29:09.242Z,6.76
2023-11-23T19:31:37.163Z,6.76
2023-11-23T19:34:05.497Z,6.78
2023-11-23T19:36:35.320Z,6.78
2023-11-23T19:39:03.893Z,6.81
2023-11-23T19:41:32.211Z,6.81
2023-11-23T19:43:59.733Z,6.83
2023-11-23T19:46:29.262Z,6.86
2023-11-23T19:48:57.864Z,6.90
2023-11-23T19:51:30.352Z,6.90
2023-11-23T19:54:00.989Z,6.93
2023-11-23T19:56:28.483Z,6.95
2023-11-23T19:58:55.350Z,6.95
2023-11-23T20:01:22.474Z,6.98
2023-11-23T20:03:49.427Z,7.00
2023-11-23T20:06:16.356Z,7.02
2023-11-23T20:08:44.472Z,7.04
2023-11-23T20:11:13.242Z,7.06
2023-11-23T20:13:40.790Z,7.09
2023-11-23T20:16:18.399Z,7.09
2023-11-23T20:18:51.308Z,7.09
2023-11-23T20:21:18.279Z,7.10
2023-11-23T20:23:44.978Z,7.12
2023-11-23T20:26:11.821Z,7.14
2023-11-23T20:28:38.845Z,7.17
2023-11-23T20:31:06.420Z,7.13
2023-11-23T20:33:33.420Z,7.08
2023-11-23T20:36:00.264Z,7.03
2023-11-23T20:38:27.065Z,6.97
2023-11-23T20:40:53.846Z,6.93
2023-11-23T20:43:22.506Z,6.86
2023-11-23T20:45:51.984Z,6.80
2023-11-23T20:48:18.829Z,6.74
2023-11-23T20:50:46.121Z,6.69
2023-11-23T20:53:12.884Z,6.65
2023-11-23T20:55:40.813Z,6.59
2023-11-23T20:58:09.008Z,6.56
2023-11-23T21:00:36.768Z,6.48
2023-11-23T21:03:05.075Z,6.46
2023-11-23T21:05:33.290Z,6.40
2023-11-23T21:08:01.599Z,6.34
2023-11-23T21:10:30.113Z,6.29
2023-11-23T21:12:57.215Z,6.25
2023-11-23T21:15:24.003Z,6.23
2023-11-23T21:17:51.002Z,6.20
2023-11-23T21:20:18.037Z,6.18
2023-11-23T21:22:45.041Z,6.14
2023-11-23T21:25:12.065Z,6.12
2023-11-23T21:27:43.504Z,6.09
2023-11-23T21:30:12.860Z,6.05
2023-11-23T21:32:40.522Z,6.00
2023-11-23T21:35:09.213Z,6.01
2023-11-23T21:37:36.717Z,6.00
2023-11-23T21:40:03.618Z,6.01
2023-11-23T21:42:30.977Z,6.03
2023-11-23T21:44:57.816Z,6.05
2023-11-23T21:47:24.619Z,6.06
2023-11-23T21:49:51.439Z,6.03
2023-11-23T21:52:18.309Z,6.01
2023-11-23T21:54:50.809Z,6.00
2023-11-23T21:57:25.064Z,5.99
2023-11-23T21:59:51.931Z,5.97
2023-11-23T22:02:18.817Z,5.98
2023-11-23T22:04:47.399Z,5.97
2023-11-23T22:07:14.295Z,5.98
2023-11-23T22:09:41.216Z,6.00
2023-11-23T22:12:09.562Z,6.03
2023-11-23T22:14:38.363Z,6.05
2023-11-23T22:17:05.755Z,6.04
2023-11-23T22:19:33.270Z,6.03
2023-11-23T22:22:00.665Z,6.04
2023-11-23T22:24:29.178Z,6.03
2023-11-23T22:26:59.544Z,6.02
2023-11-23T22:29:26.270Z,6.03
2023-11-23T22:31:56.559Z,6.03
2023-11-23T22:34:25.585Z,6.00
2023-11-23T22:36:55.848Z,5.97
2023-11-23T22:39:24.283Z,5.90
2023-11-23T22:41:52.543Z,5.87
2023-11-23T22:44:20.388Z,5.84
2023-11-23T22:46:49.915Z,5.83
2023-11-23T22:49:16.761Z,5.81
2023-11-23T22:51:44.230Z,5.81
2023-11-23T22:54:11.542Z,5.81
2023-11-23T22:56:38.882Z,5.82
2023-11-23T22:59:05.741Z,5.81
2023-11-23T23:01:32.616Z,5.83
2023-11-23T23:03:59.662Z,5.82
2023-11-23T23:06:26.600Z,5.77
2023-11-23T23:08:53.781Z,5.74
2023-11-23T23:11:20.517Z,5.71
2023-11-23T23:13:47.359Z,5.68
2023-11-23T23:16:15.418Z,5.67
2023-11-23T23:18:42.468Z,5.65
2023-11-23T23:21:09.804Z,5.65
2023-11-23T23:23:36.790Z,5.64
2023-11-23T23:26:03.941Z,5.64
2023-11-23T23:28:32.669Z,5.64
2023-11-23T23:31:00.140Z,5.63
2023-11-23T23:33:27.090Z,5.63
2023-11-23T23:35:54.349Z,5.61
2023-11-23T23:38:21.133Z,5.61
2023-11-23T23:40:51.393Z,5.60
2023-11-23T23:43:18.768Z,5.62
2023-11-23T23:45:45.786Z,5.64
2023-11-23T23:48:12.700Z,5.66
2023-11-23T23:50:41.788Z,5.67
2023-11-23T23:53:08.840Z,5.66
2023-11-23T23:55:35.663Z,5.65
2023-11-23T23:58:04.967Z,5.63
